createdAt,value
2018-12-22T00:01:49.859Z,10.70
2018-12-22T00:04:17.301Z,10.70
2018-12-22T00:06:44.762Z,10.70
2018-12-22T00:09:12.201Z,10.70
2018-12-22T00:11:39.721Z,10.70
2018-12-22T00:14:07.175Z,10.70
2018-12-22T00:16:34.649Z,10.70
2018-12-22T00:19:02.088Z,10.70
2018-12-22T00:21:29.522Z,10.70
2018-12-22T00:23:56.976Z,10.70
2018-12-22T00:26:24.424Z,10.70
2018-12-22T00:28:51.917Z,10.70
2018-12-22T00:31:19.390Z,10.70
2018-12-22T00:33:46.915Z,10.80
2018-12-22T00:36:14.561Z,10.80
2018-12-22T00:38:42.049Z,10.80
2018-12-22T00:41:09.521Z,10.80
2018-12-22T00:43:36.952Z,10.80
2018-12-22T00:46:04.403Z,10.80
2018-12-22T00:48:31.879Z,10.80
2018-12-22T00:50:59.378Z,10.90
2018-12-22T00:53:26.801Z,10.90
2018-12-22T00:55:54.361Z,10.90
2018-12-22T00:58:21.811Z,10.90
2018-12-22T01:00:49.321Z,10.90
2018-12-22T01:03:16.785Z,10.90
2018-12-22T01:05:44.286Z,10.90
2018-12-22T01:08:11.738Z,10.90
2018-12-22T01:10:39.211Z,10.90
2018-12-22T01:13:06.710Z,10.90
2018-12-22T01:15:34.160Z,10.90
2018-12-22T01:18:01.637Z,10.90
2018-12-22T01:20:29.074Z,10.90
2018-12-22T01:22:56.578Z,10.80
2018-12-22T01:25:24.007Z,10.70
2018-12-22T01:27:51.505Z,10.60
2018-12-22T01:30:18.960Z,10.60
2018-12-22T01:32:46.468Z,10.50
2018-12-22T01:35:13.944Z,10.50
2018-12-22T01:37:41.419Z,10.50
2018-12-22T01:40:08.935Z,10.40
2018-12-22T01:42:36.411Z,10.40
2018-12-22T01:45:04.812Z,10.40
2018-12-22T01:47:32.294Z,10.40
2018-12-22T01:49:59.751Z,10.40
2018-12-22T01:52:27.269Z,10.40
2018-12-22T01:54:54.713Z,10.40
2018-12-22T01:57:22.182Z,10.40
2018-12-22T01:59:49.681Z,10.40
2018-12-22T02:02:17.124Z,10.40
2018-12-22T02:04:44.584Z,10.40
2018-12-22T02:07:12.059Z,10.40
2018-12-22T02:09:39.498Z,10.40
2018-12-22T02:12:06.965Z,10.30
2018-12-22T02:14:34.397Z,10.30
2018-12-22T02:17:01.924Z,10.30
2018-12-22T02:19:29.391Z,10.30
2018-12-22T02:21:56.865Z,10.30
2018-12-22T02:24:24.350Z,10.30
2018-12-22T02:26:51.785Z,10.30
2018-12-22T02:29:19.223Z,10.30
2018-12-22T02:31:46.697Z,10.40
2018-12-22T02:34:14.137Z,10.40
2018-12-22T02:36:41.596Z,10.40
2018-12-22T02:39:09.040Z,10.40
2018-12-22T02:41:36.582Z,10.40
2018-12-22T02:44:04.013Z,10.40
2018-12-22T02:46:31.485Z,10.30
2018-12-22T02:48:58.960Z,10.40
2018-12-22T02:51:26.440Z,10.40
2018-12-22T02:53:53.896Z,10.40
2018-12-22T02:56:21.409Z,10.40
2018-12-22T02:58:48.892Z,10.40
2018-12-22T03:01:17.123Z,10.40
2018-12-22T03:03:44.661Z,10.40
2018-12-22T03:06:12.135Z,10.40
2018-12-22T03:08:39.700Z,10.40
2018-12-22T03:11:07.217Z,10.40
2018-12-22T03:13:34.675Z,10.40
2018-12-22T03:16:02.118Z,10.40
2018-12-22T03:18:29.574Z,10.40
2018-12-22T03:20:57.033Z,10.40
2018-12-22T03:23:24.690Z,10.40
2018-12-22T03:25:52.214Z,10.50
2018-12-22T03:28:19.660Z,10.50
2018-12-22T03:30:47.105Z,10.50
2018-12-22T03:33:14.561Z,10.60
2018-12-22T03:35:42.082Z,10.60
2018-12-22T03:38:09.559Z,10.60
2018-12-22T03:40:37.007Z,10.70
2018-12-22T03:43:04.472Z,10.70
2018-12-22T03:45:32.008Z,10.70
2018-12-22T03:47:59.436Z,10.70
2018-12-22T03:50:26.884Z,10.70
2018-12-22T03:52:54.326Z,10.80
2018-12-22T03:55:21.863Z,10.80
2018-12-22T03:57:49.425Z,10.80
2018-12-22T04:00:16.906Z,10.80
2018-12-22T04:02:44.352Z,10.80
2018-12-22T04:05:11.828Z,10.90
2018-12-22T04:07:39.285Z,10.80
2018-12-22T04:10:07.205Z,10.80
2018-12-22T04:12:34.668Z,10.80
2018-12-22T04:15:02.178Z,10.90
2018-12-22T04:17:29.620Z,10.80
2018-12-22T04:19:57.060Z,10.90
2018-12-22T04:22:24.550Z,10.90
2018-12-22T04:24:53.374Z,10.90
2018-12-22T04:27:20.828Z,10.90
2018-12-22T04:29:48.288Z,10.90
2018-12-22T04:32:15.755Z,10.90
2018-12-22T04:34:43.222Z,10.90
2018-12-22T04:37:10.709Z,11.00
2018-12-22T04:39:38.148Z,11.00
2018-12-22T04:42:05.625Z,11.00
2018-12-22T04:44:33.107Z,11.00
2018-12-22T04:47:00.542Z,11.10
2018-12-22T04:49:27.995Z,11.10
2018-12-22T04:51:55.432Z,11.10
2018-12-22T04:54:22.956Z,11.10
2018-12-22T04:56:50.413Z,11.10
2018-12-22T04:59:17.880Z,11.10
2018-12-22T05:01:45.338Z,11.10
2018-12-22T05:04:12.815Z,11.10
2018-12-22T05:06:40.240Z,11.20
2018-12-22T05:09:07.761Z,11.20
2018-12-22T05:11:35.232Z,11.10
2018-12-22T05:14:02.668Z,11.10
2018-12-22T05:16:30.112Z,11.10
2018-12-22T05:18:57.641Z,11.10
2018-12-22T05:21:25.084Z,11.10
2018-12-22T05:23:52.544Z,11.10
2018-12-22T05:26:20.105Z,11.10
2018-12-22T05:28:47.572Z,11.10
2018-12-22T05:31:15.012Z,11.10
2018-12-22T05:33:42.501Z,11.20
2018-12-22T05:36:09.932Z,11.20
2018-12-22T05:38:37.442Z,11.20
2018-12-22T05:41:04.978Z,11.20
2018-12-22T05:43:32.465Z,11.20
2018-12-22T05:45:59.899Z,11.20
2018-12-22T05:48:27.359Z,11.20
2018-12-22T05:50:54.813Z,11.20
2018-12-22T05:53:22.272Z,11.20
2018-12-22T05:55:49.740Z,11.30
2018-12-22T05:58:17.197Z,11.30
2018-12-22T06:00:44.671Z,11.30
2018-12-22T06:03:12.100Z,11.30
2018-12-22T06:05:39.573Z,11.30
2018-12-22T06:08:07.028Z,11.20
2018-12-22T06:10:34.503Z,11.20
2018-12-22T06:13:01.946Z,11.20
2018-12-22T06:15:29.413Z,11.20
2018-12-22T06:17:56.877Z,11.20
2018-12-22T06:20:24.312Z,11.20
2018-12-22T06:22:51.756Z,11.20
2018-12-22T06:25:19.229Z,11.20
2018-12-22T06:27:46.701Z,11.20
2018-12-22T06:30:14.228Z,11.20
2018-12-22T06:32:41.739Z,11.30
2018-12-22T06:35:09.200Z,11.30
2018-12-22T06:37:36.639Z,11.30
2018-12-22T06:40:06.264Z,11.30
2018-12-22T06:42:33.703Z,11.20
2018-12-22T06:45:01.152Z,11.30
2018-12-22T06:47:28.599Z,11.20
2018-12-22T06:49:56.046Z,11.30
2018-12-22T06:52:23.489Z,11.30
2018-12-22T06:54:50.970Z,11.30
2018-12-22T06:57:18.410Z,11.20
2018-12-22T06:59:45.883Z,11.20
2018-12-22T07:02:13.319Z,11.30
2018-12-22T07:04:40.834Z,11.30
2018-12-22T07:07:08.306Z,11.30
2018-12-22T07:09:35.793Z,11.30
2018-12-22T07:12:03.265Z,11.20
2018-12-22T07:14:30.738Z,11.10
2018-12-22T07:16:58.249Z,11.10
2018-12-22T07:19:25.756Z,11.10
2018-12-22T07:21:53.226Z,11.10
2018-12-22T07:24:20.731Z,11.10
2018-12-22T07:26:48.256Z,11.10
2018-12-22T07:29:15.709Z,11.10
2018-12-22T07:31:43.141Z,11.10
2018-12-22T07:34:10.609Z,11.10
2018-12-22T07:36:38.061Z,11.20
2018-12-22T07:39:06.888Z,11.20
2018-12-22T07:41:34.860Z,11.20
2018-12-22T07:44:02.351Z,11.20
2018-12-22T07:46:29.796Z,11.20
2018-12-22T07:48:57.275Z,11.20
2018-12-22T07:51:24.726Z,11.30
2018-12-22T07:53:52.208Z,11.30
2018-12-22T07:56:19.647Z,11.30
2018-12-22T07:58:47.105Z,11.20
2018-12-22T08:01:14.596Z,11.30
2018-12-22T08:03:42.068Z,11.30
2018-12-22T08:06:09.515Z,11.30
2018-12-22T08:08:36.977Z,11.40
2018-12-22T08:11:04.472Z,11.40
2018-12-22T08:13:31.938Z,11.40
2018-12-22T08:15:59.412Z,11.40
2018-12-22T08:18:26.865Z,11.40
2018-12-22T08:20:54.315Z,11.40
2018-12-22T08:23:21.868Z,11.50
2018-12-22T08:25:49.303Z,11.50
2018-12-22T08:28:16.739Z,11.50
2018-12-22T08:30:44.241Z,11.50
2018-12-22T08:33:11.712Z,11.50
2018-12-22T08:35:39.181Z,11.50
2018-12-22T08:38:06.696Z,11.60
2018-12-22T08:40:34.188Z,11.60
2018-12-22T08:43:01.660Z,11.60
2018-12-22T08:45:29.136Z,11.70
2018-12-22T08:47:56.580Z,11.70
2018-12-22T08:50:24.029Z,11.70
2018-12-22T08:52:51.484Z,11.70
2018-12-22T08:55:18.966Z,11.70
2018-12-22T08:57:46.399Z,11.70
2018-12-22T09:00:13.839Z,11.70
2018-12-22T09:02:41.273Z,11.80
2018-12-22T09:05:08.753Z,11.70
2018-12-22T09:07:36.208Z,11.70
2018-12-22T09:10:04.554Z,11.80
2018-12-22T09:12:31.986Z,11.80
2018-12-22T09:14:59.455Z,11.90
2018-12-22T09:17:26.880Z,11.80
2018-12-22T09:19:54.324Z,11.90
2018-12-22T09:22:21.892Z,11.90
2018-12-22T09:24:49.364Z,12.00
2018-12-22T09:27:16.780Z,11.90
2018-12-22T09:29:44.240Z,12.00
2018-12-22T09:32:11.686Z,12.00
2018-12-22T09:34:39.142Z,12.00
2018-12-22T09:37:06.990Z,12.10
2018-12-22T09:39:34.678Z,12.10
2018-12-22T09:42:02.364Z,12.20
2018-12-22T09:44:29.960Z,12.10
2018-12-22T09:46:57.438Z,12.20
2018-12-22T09:49:24.907Z,12.20
2018-12-22T09:51:52.378Z,12.20
2018-12-22T09:54:19.840Z,12.20
2018-12-22T09:56:47.349Z,12.30
2018-12-22T09:59:14.774Z,12.30
2018-12-22T10:01:42.223Z,12.40
2018-12-22T10:04:09.725Z,12.40
2018-12-22T10:06:37.199Z,12.40
2018-12-22T10:09:05.965Z,12.40
2018-12-22T10:11:33.456Z,12.50
2018-12-22T10:14:00.935Z,12.50
2018-12-22T10:16:28.382Z,12.30
2018-12-22T10:18:55.836Z,12.20
2018-12-22T10:21:23.322Z,12.20
2018-12-22T10:23:50.831Z,12.10
2018-12-22T10:26:18.343Z,12.10
2018-12-22T10:28:45.788Z,12.00
2018-12-22T10:31:17.954Z,12.00
2018-12-22T10:33:42.750Z,12.00
2018-12-22T10:36:10.386Z,12.00
2018-12-22T10:38:37.935Z,12.00
2018-12-22T10:41:05.437Z,12.00
2018-12-22T10:43:32.953Z,12.00
2018-12-22T10:46:00.423Z,12.00
2018-12-22T10:48:27.886Z,12.00
2018-12-22T10:50:55.341Z,12.00
2018-12-22T10:53:22.819Z,11.90
2018-12-22T10:55:50.318Z,11.90
2018-12-22T10:58:17.771Z,11.80
2018-12-22T11:00:45.240Z,11.80
2018-12-22T11:03:12.684Z,11.90
2018-12-22T11:05:40.157Z,11.90
2018-12-22T11:08:07.697Z,11.90
2018-12-22T11:10:35.167Z,12.00
2018-12-22T11:13:02.652Z,12.10
2018-12-22T11:15:30.095Z,12.10
2018-12-22T11:17:57.556Z,12.20
2018-12-22T11:20:24.983Z,12.20
2018-12-22T11:22:52.441Z,12.00
2018-12-22T11:25:19.901Z,11.90
2018-12-22T11:27:47.392Z,11.40
2018-12-22T11:30:19.502Z,10.90
2018-12-22T11:32:46.933Z,10.60
2018-12-22T11:35:14.404Z,10.30
2018-12-22T11:37:41.860Z,10.30
2018-12-22T11:40:09.704Z,10.20
2018-12-22T11:42:37.176Z,10.30
2018-12-22T11:45:07.120Z,10.30
2018-12-22T11:47:37.820Z,10.40
2018-12-22T11:50:10.759Z,10.40
2018-12-22T11:52:39.517Z,10.40
2018-12-22T11:55:07.868Z,10.50
2018-12-22T11:57:35.452Z,10.50
2018-12-22T12:00:03.013Z,10.50
2018-12-22T12:02:30.449Z,10.50
2018-12-22T12:04:57.887Z,10.50
2018-12-22T12:07:25.406Z,10.50
2018-12-22T12:09:52.873Z,10.50
2018-12-22T12:12:20.389Z,10.50
2018-12-22T12:14:47.850Z,10.50
2018-12-22T12:17:16.976Z,10.50
2018-12-22T12:19:44.432Z,10.40
2018-12-22T12:22:11.904Z,10.50
2018-12-22T12:24:39.356Z,10.40
2018-12-22T12:27:06.852Z,10.40
2018-12-22T12:29:34.296Z,10.40
2018-12-22T12:32:01.821Z,10.40
2018-12-22T12:34:29.252Z,10.50
2018-12-22T12:36:56.710Z,10.60
2018-12-22T12:39:24.161Z,10.60
2018-12-22T12:41:52.155Z,10.50
2018-12-22T12:44:19.579Z,10.50
2018-12-22T12:46:47.110Z,10.60
2018-12-22T12:49:14.633Z,10.60
2018-12-22T12:51:42.086Z,10.60
2018-12-22T12:54:09.543Z,10.60
2018-12-22T12:56:37.044Z,10.50
2018-12-22T12:59:04.563Z,10.50
2018-12-22T13:01:32.033Z,10.40
2018-12-22T13:03:59.514Z,10.30
2018-12-22T13:06:26.956Z,10.30
2018-12-22T13:08:54.456Z,10.20
2018-12-22T13:11:22.097Z,10.10
2018-12-22T13:13:49.622Z,10.10
2018-12-22T13:16:17.147Z,10.00
2018-12-22T13:18:44.593Z,10.00
2018-12-22T13:21:12.077Z,10.10
2018-12-22T13:23:39.564Z,10.10
2018-12-22T13:26:07.150Z,10.20
2018-12-22T13:28:34.665Z,10.30
2018-12-22T13:31:02.207Z,10.30
2018-12-22T13:33:29.678Z,10.40
2018-12-22T13:35:57.113Z,10.40
2018-12-22T13:38:24.645Z,10.40
2018-12-22T13:40:52.159Z,10.50
2018-12-22T13:43:19.639Z,10.50
2018-12-22T13:45:47.076Z,10.50
2018-12-22T13:48:14.636Z,10.50
2018-12-22T13:50:42.290Z,10.50
2018-12-22T13:53:09.840Z,10.50
2018-12-22T13:55:37.366Z,10.50
2018-12-22T13:58:04.907Z,10.60
2018-12-22T14:00:32.451Z,10.50
2018-12-22T14:02:59.892Z,10.60
2018-12-22T14:05:28.181Z,10.60
2018-12-22T14:07:55.675Z,10.70
2018-12-22T14:10:23.505Z,10.70
2018-12-22T14:12:50.936Z,10.70
2018-12-22T14:15:21.659Z,10.70
2018-12-22T14:21:03.404Z,10.80
2018-12-22T14:23:36.662Z,10.80
2018-12-22T14:26:04.152Z,10.90
2018-12-22T14:28:31.623Z,10.90
2018-12-22T14:30:59.119Z,10.90
2018-12-22T14:33:26.592Z,10.90
2018-12-22T14:35:54.124Z,10.80
2018-12-22T14:38:21.579Z,10.80
2018-12-22T14:40:49.069Z,10.80
2018-12-22T14:43:16.528Z,10.70
2018-12-22T14:45:43.987Z,10.70
2018-12-22T14:48:11.483Z,10.70
2018-12-22T14:50:38.918Z,10.70
2018-12-22T14:53:06.397Z,10.60
2018-12-22T14:55:33.932Z,10.70
2018-12-22T14:58:02.291Z,10.70
2018-12-22T15:00:29.730Z,10.70
2018-12-22T15:02:57.222Z,10.70
2018-12-22T15:05:24.722Z,10.70
2018-12-22T15:07:52.180Z,10.70
2018-12-22T15:10:19.644Z,10.70
2018-12-22T15:12:47.132Z,10.70
2018-12-22T15:15:14.620Z,10.70
2018-12-22T15:17:43.170Z,10.80
2018-12-22T15:20:14.736Z,10.70
2018-12-22T15:22:42.329Z,10.70
2018-12-22T15:25:09.875Z,10.60
2018-12-22T15:27:37.420Z,10.50
2018-12-22T15:30:10.881Z,10.40
2018-12-22T15:32:44.167Z,10.30
2018-12-22T15:35:08.792Z,10.30
2018-12-22T15:37:36.318Z,10.30
2018-12-22T15:40:08.646Z,10.30
2018-12-22T15:42:36.157Z,10.30
2018-12-22T15:45:10.108Z,10.20
2018-12-22T15:47:37.587Z,10.10
2018-12-22T15:50:08.912Z,10.00
2018-12-22T15:52:36.394Z,10.00
2018-12-22T15:55:06.429Z,9.90
2018-12-22T15:57:33.920Z,9.90
2018-12-22T16:00:02.292Z,9.90
2018-12-22T16:02:29.754Z,9.90
2018-12-22T16:04:57.216Z,9.90
2018-12-22T16:07:24.723Z,9.80
2018-12-22T16:09:52.187Z,9.90
2018-12-22T16:12:19.638Z,9.80
2018-12-22T16:14:47.085Z,9.80
2018-12-22T16:17:14.530Z,9.70
2018-12-22T16:19:42.043Z,9.60
2018-12-22T16:22:09.492Z,9.60
2018-12-22T16:24:36.987Z,9.60
2018-12-22T16:27:04.428Z,9.60
2018-12-22T16:29:32.348Z,9.50
2018-12-22T16:31:59.837Z,9.50
2018-12-22T16:34:27.348Z,9.50
2018-12-22T16:36:54.790Z,9.40
2018-12-22T16:39:22.253Z,9.40
2018-12-22T16:41:50.305Z,9.40
2018-12-22T16:44:17.800Z,9.40
2018-12-22T16:46:45.299Z,9.30
2018-12-22T16:49:12.974Z,9.40
2018-12-22T16:51:40.501Z,9.30
2018-12-22T16:54:08.012Z,9.30
2018-12-22T16:56:35.479Z,9.30
2018-12-22T16:59:02.929Z,9.30
2018-12-22T17:01:34.275Z,9.30
2018-12-22T17:04:01.784Z,9.30
2018-12-22T17:06:29.312Z,9.30
2018-12-22T17:08:56.768Z,9.40
2018-12-22T17:11:24.247Z,9.40
2018-12-22T17:13:51.679Z,9.40
2018-12-22T17:16:19.228Z,9.40
2018-12-22T17:18:46.699Z,9.40
2018-12-22T17:21:17.695Z,9.40
2018-12-22T17:23:53.471Z,9.40
2018-12-22T17:26:23.199Z,9.40
2018-12-22T17:28:50.665Z,9.50
2018-12-22T17:31:18.190Z,9.50
2018-12-22T17:33:45.691Z,9.50
2018-12-22T17:36:13.216Z,9.60
2018-12-22T17:38:40.818Z,9.60
2018-12-22T17:41:08.340Z,9.50
2018-12-22T17:43:37.368Z,9.60
2018-12-22T17:46:04.896Z,9.60
2018-12-22T17:48:32.364Z,9.60
2018-12-22T17:50:59.835Z,9.70
2018-12-22T17:53:27.265Z,9.70
2018-12-22T17:55:54.745Z,9.60
2018-12-22T17:58:22.232Z,9.60
2018-12-22T18:00:49.732Z,9.70
2018-12-22T18:03:17.269Z,9.60
2018-12-22T18:05:44.790Z,9.70
2018-12-22T18:08:12.234Z,9.60
2018-12-22T18:10:39.680Z,9.60
2018-12-22T18:13:07.124Z,9.60
2018-12-22T18:15:34.680Z,9.60
2018-12-22T18:18:02.140Z,9.50
2018-12-22T18:20:29.617Z,9.50
2018-12-22T18:22:57.068Z,9.60
2018-12-22T18:25:24.539Z,9.50
2018-12-22T18:27:53.002Z,9.50
2018-12-22T18:30:20.518Z,9.50
2018-12-22T18:32:48.250Z,9.50
2018-12-22T18:35:15.734Z,9.50
2018-12-22T18:37:43.190Z,9.50
2018-12-22T18:40:16.426Z,9.50
2018-12-22T18:42:44.929Z,9.50
2018-12-22T18:45:12.668Z,9.60
2018-12-22T18:47:40.505Z,9.50
2018-12-22T18:50:19.401Z,9.50
2018-12-22T18:52:46.862Z,9.40
2018-12-22T18:55:14.393Z,9.20
2018-12-22T18:57:42.003Z,9.10
2018-12-22T19:00:17.372Z,9.10
2018-12-22T19:02:44.878Z,9.10
2018-12-22T19:05:13.116Z,9.10
2018-12-22T19:07:40.559Z,9.10
2018-12-22T19:10:17.775Z,9.10
2018-12-22T19:12:45.259Z,9.10
2018-12-22T19:15:12.739Z,9.10
2018-12-22T19:17:40.296Z,9.10
2018-12-22T19:20:14.857Z,9.10
2018-12-22T19:22:42.336Z,9.00
2018-12-22T19:25:09.772Z,9.00
2018-12-22T19:27:37.214Z,9.00
2018-12-22T19:30:06.629Z,8.90
2018-12-22T19:32:34.068Z,8.90
2018-12-22T19:35:01.519Z,8.90
2018-12-22T19:37:29.137Z,8.90
2018-12-22T19:39:56.572Z,8.90
2018-12-22T19:42:24.019Z,8.90
2018-12-22T19:44:51.467Z,8.90
2018-12-22T19:47:18.949Z,9.00
2018-12-22T19:49:46.429Z,9.00
2018-12-22T19:52:13.879Z,9.00
2018-12-22T19:54:41.323Z,9.00
2018-12-22T19:57:08.760Z,9.00
2018-12-22T19:59:36.200Z,9.00
2018-12-22T20:02:03.694Z,9.10
2018-12-22T20:04:31.320Z,9.10
2018-12-22T20:06:58.901Z,9.20
2018-12-22T20:09:26.337Z,9.20
2018-12-22T20:11:53.799Z,9.20
2018-12-22T20:14:21.241Z,9.20
2018-12-22T20:16:48.721Z,9.10
2018-12-22T20:19:16.200Z,9.10
2018-12-22T20:21:43.659Z,9.10
2018-12-22T20:24:11.184Z,9.10
2018-12-22T20:26:38.676Z,9.10
2018-12-22T20:29:06.139Z,9.10
2018-12-22T20:31:33.605Z,9.10
2018-12-22T20:34:01.058Z,9.10
2018-12-22T20:36:28.530Z,9.10
2018-12-22T20:38:56.009Z,9.20
2018-12-22T20:41:23.478Z,9.20
2018-12-22T20:43:50.971Z,9.20
2018-12-22T20:46:18.585Z,9.20
2018-12-22T20:48:46.042Z,9.20
2018-12-22T20:51:13.513Z,9.20
2018-12-22T20:53:40.958Z,9.20
2018-12-22T20:56:08.415Z,9.20
2018-12-22T20:58:35.872Z,9.20
2018-12-22T21:01:03.382Z,9.20
2018-12-22T21:03:34.797Z,9.30
2018-12-22T21:06:03.252Z,9.30
2018-12-22T21:08:30.704Z,9.30
2018-12-22T21:10:58.220Z,9.40
2018-12-22T21:13:25.686Z,9.40
2018-12-22T21:15:53.285Z,9.40
2018-12-22T21:18:20.761Z,9.40
2018-12-22T21:20:48.231Z,9.40
2018-12-22T21:23:15.710Z,9.40
2018-12-22T21:25:43.164Z,9.40
2018-12-22T21:28:10.649Z,9.40
2018-12-22T21:30:38.092Z,9.30
2018-12-22T21:33:05.582Z,9.40
2018-12-22T21:35:33.057Z,9.40
2018-12-22T21:38:00.503Z,9.40
2018-12-22T21:40:27.973Z,9.50
2018-12-22T21:42:55.463Z,9.50
2018-12-22T21:45:22.911Z,9.50
2018-12-22T21:47:50.375Z,9.50
2018-12-22T21:50:17.858Z,9.50
2018-12-22T21:52:45.341Z,9.50
2018-12-22T21:55:12.831Z,9.50
2018-12-22T21:57:40.423Z,9.50
2018-12-22T22:00:07.945Z,9.50
2018-12-22T22:02:35.428Z,9.50
2018-12-22T22:05:02.936Z,9.50
2018-12-22T22:07:30.398Z,9.50
2018-12-22T22:09:58.790Z,9.50
2018-12-22T22:12:26.263Z,9.60
2018-12-22T22:14:53.848Z,9.50
2018-12-22T22:17:21.317Z,9.50
2018-12-22T22:19:48.769Z,9.40
2018-12-22T22:22:16.229Z,9.40
2018-12-22T22:24:43.717Z,9.30
2018-12-22T22:27:11.191Z,9.30
2018-12-22T22:29:38.673Z,9.30
2018-12-22T22:32:06.146Z,9.30
2018-12-22T22:34:33.589Z,9.30
2018-12-22T22:37:01.034Z,9.30
2018-12-22T22:39:28.519Z,9.40
2018-12-22T22:41:55.958Z,9.40
2018-12-22T22:44:23.520Z,9.40
2018-12-22T22:46:51.000Z,9.40
2018-12-22T22:49:18.458Z,9.40
2018-12-22T22:51:45.899Z,9.50
2018-12-22T22:54:13.347Z,9.50
2018-12-22T22:56:40.776Z,9.40
2018-12-22T22:59:08.232Z,9.40
2018-12-22T23:01:35.716Z,9.40
2018-12-22T23:04:03.173Z,9.30
2018-12-22T23:06:30.627Z,9.30
2018-12-22T23:08:58.119Z,9.30
2018-12-22T23:11:25.620Z,9.30
2018-12-22T23:13:53.194Z,9.30
2018-12-22T23:16:20.614Z,9.30
2018-12-22T23:18:48.041Z,9.30
2018-12-22T23:21:15.519Z,9.20
2018-12-22T23:23:43.002Z,9.10
2018-12-22T23:26:10.411Z,9.10
2018-12-22T23:28:37.852Z,9.00
2018-12-22T23:31:05.315Z,9.00
2018-12-22T23:33:32.751Z,9.00
2018-12-22T23:36:00.220Z,9.00
2018-12-22T23:38:27.696Z,8.90
2018-12-22T23:40:55.224Z,8.90
2018-12-22T23:43:22.800Z,8.90
2018-12-22T23:45:50.233Z,8.80
2018-12-22T23:48:17.746Z,8.70
2018-12-22T23:50:45.229Z,8.70
2018-12-22T23:53:12.697Z,8.70
2018-12-22T23:55:40.136Z,8.70
2018-12-22T23:58:07.571Z,8.70
